sensor_id;sensor_type;location;lat;lon;timestamp;P1;durP1;ratioP1;P2;durP2;ratioP2
75025;SDS011;63591;50.080;8.286;2023-02-28T00:00:11;4.57;;;1.47;;
75025;SDS011;63591;50.080;8.286;2023-02-28T00:02:39;4.00;;;1.52;;
75025;SDS011;63591;50.080;8.286;2023-02-28T00:05:06;4.13;;;1.73;;
75025;SDS011;63591;50.080;8.286;2023-02-28T00:07:32;4.55;;;1.55;;
75025;SDS011;63591;50.080;8.286;2023-02-28T00:09:58;4.00;;;1.60;;
75025;SDS011;63591;50.080;8.286;2023-02-28T00:12:23;3.73;;;1.53;;
75025;SDS011;63591;50.080;8.286;2023-02-28T00:14:49;4.25;;;1.60;;
75025;SDS011;63591;50.080;8.286;2023-02-28T00:17:15;3.80;;;1.55;;
75025;SDS011;63591;50.080;8.286;2023-02-28T00:19:45;4.05;;;1.63;;
75025;SDS011;63591;50.080;8.286;2023-02-28T00:22:12;3.60;;;1.60;;
75025;SDS011;63591;50.080;8.286;2023-02-28T00:24:37;4.13;;;1.80;;
75025;SDS011;63591;50.080;8.286;2023-02-28T00:27:03;4.07;;;1.70;;
75025;SDS011;63591;50.080;8.286;2023-02-28T00:29:28;4.07;;;1.53;;
75025;SDS011;63591;50.080;8.286;2023-02-28T00:31:53;5.10;;;1.70;;
75025;SDS011;63591;50.080;8.286;2023-02-28T00:34:18;3.80;;;1.63;;
75025;SDS011;63591;50.080;8.286;2023-02-28T00:36:44;3.70;;;1.73;;
75025;SDS011;63591;50.080;8.286;2023-02-28T00:39:11;3.55;;;1.50;;
75025;SDS011;63591;50.080;8.286;2023-02-28T00:41:36;3.57;;;1.60;;
75025;SDS011;63591;50.080;8.286;2023-02-28T00:44:01;4.03;;;1.60;;
75025;SDS011;63591;50.080;8.286;2023-02-28T00:46:27;3.60;;;1.70;;
75025;SDS011;63591;50.080;8.286;2023-02-28T00:48:52;3.50;;;1.50;;
75025;SDS011;63591;50.080;8.286;2023-02-28T00:51:17;4.10;;;1.67;;
75025;SDS011;63591;50.080;8.286;2023-02-28T00:53:43;4.03;;;1.60;;
75025;SDS011;63591;50.080;8.286;2023-02-28T00:56:08;4.00;;;1.60;;
75025;SDS011;63591;50.080;8.286;2023-02-28T00:58:33;4.05;;;1.60;;
75025;SDS011;63591;50.080;8.286;2023-02-28T01:00:59;3.70;;;1.60;;
75025;SDS011;63591;50.080;8.286;2023-02-28T01:03:24;4.83;;;1.67;;
75025;SDS011;63591;50.080;8.286;2023-02-28T01:05:50;3.50;;;1.60;;
75025;SDS011;63591;50.080;8.286;2023-02-28T01:08:18;4.13;;;1.63;;
75025;SDS011;63591;50.080;8.286;2023-02-28T01:10:43;4.07;;;1.60;;
75025;SDS011;63591;50.080;8.286;2023-02-28T01:13:08;3.97;;;1.80;;
75025;SDS011;63591;50.080;8.286;2023-02-28T01:15:34;3.50;;;1.60;;
75025;SDS011;63591;50.080;8.286;2023-02-28T01:17:59;3.70;;;1.80;;
75025;SDS011;63591;50.080;8.286;2023-02-28T01:20:25;4.27;;;2.00;;
75025;SDS011;63591;50.080;8.286;2023-02-28T01:22:50;4.03;;;1.80;;
75025;SDS011;63591;50.080;8.286;2023-02-28T01:25:15;4.40;;;2.10;;
75025;SDS011;63591;50.080;8.286;2023-02-28T01:27:41;5.25;;;1.90;;
75025;SDS011;63591;50.080;8.286;2023-02-28T01:30:07;4.60;;;1.75;;
75025;SDS011;63591;50.080;8.286;2023-02-28T01:32:33;4.00;;;1.70;;
75025;SDS011;63591;50.080;8.286;2023-02-28T01:34:58;5.00;;;1.83;;
75025;SDS011;63591;50.080;8.286;2023-02-28T01:37:23;3.72;;;2.00;;
75025;SDS011;63591;50.080;8.286;2023-02-28T01:39:48;4.00;;;1.80;;
75025;SDS011;63591;50.080;8.286;2023-02-28T01:42:14;3.80;;;1.73;;
75025;SDS011;63591;50.080;8.286;2023-02-28T01:47:27;3.72;;;1.88;;
75025;SDS011;63591;50.080;8.286;2023-02-28T01:50:07;4.72;;;2.20;;
75025;SDS011;63591;50.080;8.286;2023-02-28T01:52:37;4.15;;;1.90;;
75025;SDS011;63591;50.080;8.286;2023-02-28T01:55:03;4.88;;;1.92;;
75025;SDS011;63591;50.080;8.286;2023-02-28T01:57:32;4.00;;;2.00;;
75025;SDS011;63591;50.080;8.286;2023-02-28T02:00:15;4.10;;;1.90;;
75025;SDS011;63591;50.080;8.286;2023-02-28T02:02:43;4.43;;;2.00;;
75025;SDS011;63591;50.080;8.286;2023-02-28T02:05:18;4.18;;;1.90;;
75025;SDS011;63591;50.080;8.286;2023-02-28T02:07:46;4.03;;;1.90;;
75025;SDS011;63591;50.080;8.286;2023-02-28T02:10:15;3.73;;;1.90;;
75025;SDS011;63591;50.080;8.286;2023-02-28T02:13:00;5.13;;;1.95;;
75025;SDS011;63591;50.080;8.286;2023-02-28T02:18:52;4.03;;;1.75;;
75025;SDS011;63591;50.080;8.286;2023-02-28T02:21:35;4.47;;;1.90;;
75025;SDS011;63591;50.080;8.286;2023-02-28T02:26:50;3.80;;;1.90;;
75025;SDS011;63591;50.080;8.286;2023-02-28T02:32:28;3.92;;;1.67;;
75025;SDS011;63591;50.080;8.286;2023-02-28T02:37:52;4.70;;;1.80;;
75025;SDS011;63591;50.080;8.286;2023-02-28T02:40:20;4.68;;;1.90;;
75025;SDS011;63591;50.080;8.286;2023-02-28T02:42:53;4.00;;;1.70;;
75025;SDS011;63591;50.080;8.286;2023-02-28T02:48:02;4.65;;;1.80;;
75025;SDS011;63591;50.080;8.286;2023-02-28T02:50:31;4.50;;;1.60;;
75025;SDS011;63591;50.080;8.286;2023-02-28T02:53:02;3.75;;;1.65;;
75025;SDS011;63591;50.080;8.286;2023-02-28T02:55:31;4.03;;;1.73;;
75025;SDS011;63591;50.080;8.286;2023-02-28T02:58:02;3.78;;;1.80;;
75025;SDS011;63591;50.080;8.286;2023-02-28T03:00:33;4.15;;;1.80;;
75025;SDS011;63591;50.080;8.286;2023-02-28T03:03:02;3.20;;;1.50;;
75025;SDS011;63591;50.080;8.286;2023-02-28T03:05:35;3.80;;;1.70;;
75025;SDS011;63591;50.080;8.286;2023-02-28T03:08:07;4.25;;;1.77;;
75025;SDS011;63591;50.080;8.286;2023-02-28T03:10:34;4.43;;;1.60;;
75025;SDS011;63591;50.080;8.286;2023-02-28T03:19:02;3.45;;;1.50;;
75025;SDS011;63591;50.080;8.286;2023-02-28T03:27:23;4.45;;;1.70;;
75025;SDS011;63591;50.080;8.286;2023-02-28T03:33:00;3.85;;;1.58;;
75025;SDS011;63591;50.080;8.286;2023-02-28T03:35:34;3.72;;;1.58;;
75025;SDS011;63591;50.080;8.286;2023-02-28T03:38:14;4.07;;;1.67;;
75025;SDS011;63591;50.080;8.286;2023-02-28T03:40:47;4.32;;;1.58;;
75025;SDS011;63591;50.080;8.286;2023-02-28T03:43:18;3.75;;;1.67;;
75025;SDS011;63591;50.080;8.286;2023-02-28T03:45:47;3.58;;;1.45;;
75025;SDS011;63591;50.080;8.286;2023-02-28T03:48:17;4.45;;;1.65;;
75025;SDS011;63591;50.080;8.286;2023-02-28T03:50:47;3.75;;;1.80;;
75025;SDS011;63591;50.080;8.286;2023-02-28T03:53:19;3.30;;;1.40;;
75025;SDS011;63591;50.080;8.286;2023-02-28T03:55:49;3.75;;;1.63;;
75025;SDS011;63591;50.080;8.286;2023-02-28T04:00:59;3.88;;;1.60;;
75025;SDS011;63591;50.080;8.286;2023-02-28T04:03:33;3.45;;;1.50;;
75025;SDS011;63591;50.080;8.286;2023-02-28T04:06:00;3.20;;;1.50;;
75025;SDS011;63591;50.080;8.286;2023-02-28T04:08:25;4.97;;;1.60;;
75025;SDS011;63591;50.080;8.286;2023-02-28T04:10:53;4.27;;;1.50;;
75025;SDS011;63591;50.080;8.286;2023-02-28T04:13:25;3.60;;;1.52;;
75025;SDS011;63591;50.080;8.286;2023-02-28T04:15:51;3.50;;;1.53;;
75025;SDS011;63591;50.080;8.286;2023-02-28T04:18:16;4.63;;;1.60;;
75025;SDS011;63591;50.080;8.286;2023-02-28T04:20:41;3.90;;;1.57;;
75025;SDS011;63591;50.080;8.286;2023-02-28T04:23:06;3.87;;;1.70;;
75025;SDS011;63591;50.080;8.286;2023-02-28T04:25:32;3.83;;;1.60;;
75025;SDS011;63591;50.080;8.286;2023-02-28T04:27:57;4.23;;;1.70;;
75025;SDS011;63591;50.080;8.286;2023-02-28T04:30:22;3.70;;;1.50;;
75025;SDS011;63591;50.080;8.286;2023-02-28T04:32:47;4.63;;;1.47;;
75025;SDS011;63591;50.080;8.286;2023-02-28T04:35:13;3.80;;;1.57;;
75025;SDS011;63591;50.080;8.286;2023-02-28T04:37:38;4.50;;;1.60;;
75025;SDS011;63591;50.080;8.286;2023-02-28T04:40:03;3.63;;;1.70;;
75025;SDS011;63591;50.080;8.286;2023-02-28T04:42:29;3.97;;;1.60;;
75025;SDS011;63591;50.080;8.286;2023-02-28T04:45:00;3.50;;;1.48;;
75025;SDS011;63591;50.080;8.286;2023-02-28T04:47:28;4.05;;;1.50;;
75025;SDS011;63591;50.080;8.286;2023-02-28T04:49:54;3.70;;;1.45;;
75025;SDS011;63591;50.080;8.286;2023-02-28T04:52:20;4.20;;;1.60;;
75025;SDS011;63591;50.080;8.286;2023-02-28T04:54:45;3.43;;;1.60;;
75025;SDS011;63591;50.080;8.286;2023-02-28T04:57:10;3.43;;;1.47;;
75025;SDS011;63591;50.080;8.286;2023-02-28T04:59:36;4.47;;;1.50;;
75025;SDS011;63591;50.080;8.286;2023-02-28T05:02:01;3.57;;;1.53;;
75025;SDS011;63591;50.080;8.286;2023-02-28T05:04:31;3.50;;;1.40;;
75025;SDS011;63591;50.080;8.286;2023-02-28T05:07:00;4.68;;;1.52;;
75025;SDS011;63591;50.080;8.286;2023-02-28T05:09:26;4.03;;;1.50;;
75025;SDS011;63591;50.080;8.286;2023-02-28T05:11:53;3.40;;;1.58;;
75025;SDS011;63591;50.080;8.286;2023-02-28T05:14:18;5.73;;;1.73;;
75025;SDS011;63591;50.080;8.286;2023-02-28T05:16:43;3.73;;;1.70;;
75025;SDS011;63591;50.080;8.286;2023-02-28T05:19:09;3.60;;;1.47;;
75025;SDS011;63591;50.080;8.286;2023-02-28T05:24:02;3.60;;;1.70;;
75025;SDS011;63591;50.080;8.286;2023-02-28T05:26:29;3.67;;;1.52;;
75025;SDS011;63591;50.080;8.286;2023-02-28T05:28:55;3.75;;;1.58;;
75025;SDS011;63591;50.080;8.286;2023-02-28T05:31:21;3.80;;;1.70;;
75025;SDS011;63591;50.080;8.286;2023-02-28T05:33:46;4.68;;;1.90;;
75025;SDS011;63591;50.080;8.286;2023-02-28T05:36:12;3.53;;;1.60;;
75025;SDS011;63591;50.080;8.286;2023-02-28T05:38:37;3.73;;;1.40;;
75025;SDS011;63591;50.080;8.286;2023-02-28T05:41:06;3.93;;;1.77;;
75025;SDS011;63591;50.080;8.286;2023-02-28T05:43:35;3.75;;;1.58;;
75025;SDS011;63591;50.080;8.286;2023-02-28T05:46:02;3.67;;;1.50;;
75025;SDS011;63591;50.080;8.286;2023-02-28T05:48:29;3.67;;;1.70;;
75025;SDS011;63591;50.080;8.286;2023-02-28T05:50:54;3.57;;;1.50;;
75025;SDS011;63591;50.080;8.286;2023-02-28T05:53:20;3.57;;;1.63;;
75025;SDS011;63591;50.080;8.286;2023-02-28T05:55:45;4.00;;;1.60;;
75025;SDS011;63591;50.080;8.286;2023-02-28T05:58:11;3.77;;;1.50;;
75025;SDS011;63591;50.080;8.286;2023-02-28T06:00:36;3.83;;;1.50;;
75025;SDS011;63591;50.080;8.286;2023-02-28T06:03:01;4.13;;;1.70;;
75025;SDS011;63591;50.080;8.286;2023-02-28T06:05:26;4.13;;;1.70;;
75025;SDS011;63591;50.080;8.286;2023-02-28T06:07:52;3.77;;;1.60;;
75025;SDS011;63591;50.080;8.286;2023-02-28T06:10:18;3.90;;;1.50;;
75025;SDS011;63591;50.080;8.286;2023-02-28T06:12:44;3.90;;;1.70;;
75025;SDS011;63591;50.080;8.286;2023-02-28T06:15:11;4.17;;;1.70;;
75025;SDS011;63591;50.080;8.286;2023-02-28T06:17:39;4.40;;;1.73;;
75025;SDS011;63591;50.080;8.286;2023-02-28T06:20:05;3.50;;;1.48;;
75025;SDS011;63591;50.080;8.286;2023-02-28T06:22:31;4.40;;;1.80;;
75025;SDS011;63591;50.080;8.286;2023-02-28T06:24:56;3.73;;;1.60;;
75025;SDS011;63591;50.080;8.286;2023-02-28T06:27:22;4.15;;;1.67;;
75025;SDS011;63591;50.080;8.286;2023-02-28T06:29:48;3.93;;;1.70;;
75025;SDS011;63591;50.080;8.286;2023-02-28T06:32:13;4.67;;;1.93;;
75025;SDS011;63591;50.080;8.286;2023-02-28T06:34:38;3.92;;;1.80;;
75025;SDS011;63591;50.080;8.286;2023-02-28T06:37:04;4.45;;;1.70;;
75025;SDS011;63591;50.080;8.286;2023-02-28T06:39:29;4.37;;;2.00;;
75025;SDS011;63591;50.080;8.286;2023-02-28T06:41:55;4.70;;;2.15;;
75025;SDS011;63591;50.080;8.286;2023-02-28T06:44:21;4.03;;;1.85;;
75025;SDS011;63591;50.080;8.286;2023-02-28T06:46:47;5.07;;;1.80;;
75025;SDS011;63591;50.080;8.286;2023-02-28T06:49:12;4.18;;;1.83;;
75025;SDS011;63591;50.080;8.286;2023-02-28T06:51:38;4.68;;;2.08;;
75025;SDS011;63591;50.080;8.286;2023-02-28T06:54:05;5.27;;;1.80;;
75025;SDS011;63591;50.080;8.286;2023-02-28T06:56:33;4.05;;;1.80;;
75025;SDS011;63591;50.080;8.286;2023-02-28T06:58:59;5.10;;;1.93;;
75025;SDS011;63591;50.080;8.286;2023-02-28T07:01:24;4.20;;;1.87;;
75025;SDS011;63591;50.080;8.286;2023-02-28T07:03:49;4.30;;;1.85;;
75025;SDS011;63591;50.080;8.286;2023-02-28T07:06:17;5.35;;;2.00;;
75025;SDS011;63591;50.080;8.286;2023-02-28T07:08:47;4.35;;;2.00;;
75025;SDS011;63591;50.080;8.286;2023-02-28T07:11:13;3.83;;;1.80;;
75025;SDS011;63591;50.080;8.286;2023-02-28T07:13:39;4.07;;;1.80;;
75025;SDS011;63591;50.080;8.286;2023-02-28T07:16:05;4.00;;;1.90;;
75025;SDS011;63591;50.080;8.286;2023-02-28T07:18:32;4.10;;;2.00;;
75025;SDS011;63591;50.080;8.286;2023-02-28T07:20:57;5.20;;;1.80;;
75025;SDS011;63591;50.080;8.286;2023-02-28T07:23:23;4.22;;;1.80;;
75025;SDS011;63591;50.080;8.286;2023-02-28T07:25:49;4.83;;;2.07;;
75025;SDS011;63591;50.080;8.286;2023-02-28T07:28:15;4.57;;;1.67;;
75025;SDS011;63591;50.080;8.286;2023-02-28T07:30:41;4.60;;;1.80;;
75025;SDS011;63591;50.080;8.286;2023-02-28T07:33:07;4.93;;;2.00;;
75025;SDS011;63591;50.080;8.286;2023-02-28T07:35:33;4.13;;;1.80;;
75025;SDS011;63591;50.080;8.286;2023-02-28T07:37:59;4.20;;;1.80;;
75025;SDS011;63591;50.080;8.286;2023-02-28T07:40:24;5.10;;;1.90;;
75025;SDS011;63591;50.080;8.286;2023-02-28T07:42:50;4.40;;;1.90;;
75025;SDS011;63591;50.080;8.286;2023-02-28T07:45:15;4.00;;;1.73;;
75025;SDS011;63591;50.080;8.286;2023-02-28T07:47:42;4.20;;;1.60;;
75025;SDS011;63591;50.080;8.286;2023-02-28T07:50:09;3.90;;;1.83;;
75025;SDS011;63591;50.080;8.286;2023-02-28T07:52:37;4.88;;;1.88;;
75025;SDS011;63591;50.080;8.286;2023-02-28T07:55:04;4.25;;;1.88;;
75025;SDS011;63591;50.080;8.286;2023-02-28T07:57:30;4.28;;;1.70;;
75025;SDS011;63591;50.080;8.286;2023-02-28T07:59:55;4.50;;;1.80;;
75025;SDS011;63591;50.080;8.286;2023-02-28T08:02:21;4.33;;;1.80;;
75025;SDS011;63591;50.080;8.286;2023-02-28T08:04:46;4.35;;;1.83;;
75025;SDS011;63591;50.080;8.286;2023-02-28T08:07:13;4.20;;;2.00;;
75025;SDS011;63591;50.080;8.286;2023-02-28T08:09:39;4.10;;;1.80;;
75025;SDS011;63591;50.080;8.286;2023-02-28T08:12:05;4.43;;;1.80;;
75025;SDS011;63591;50.080;8.286;2023-02-28T08:14:31;4.20;;;1.80;;
75025;SDS011;63591;50.080;8.286;2023-02-28T08:16:57;4.70;;;1.97;;
75025;SDS011;63591;50.080;8.286;2023-02-28T08:19:22;4.00;;;1.70;;
75025;SDS011;63591;50.080;8.286;2023-02-28T08:21:47;4.20;;;1.90;;
75025;SDS011;63591;50.080;8.286;2023-02-28T08:24:12;4.60;;;2.00;;
75025;SDS011;63591;50.080;8.286;2023-02-28T08:26:38;4.13;;;1.83;;
75025;SDS011;63591;50.080;8.286;2023-02-28T08:29:03;3.97;;;1.63;;
75025;SDS011;63591;50.080;8.286;2023-02-28T08:31:28;6.90;;;2.10;;
75025;SDS011;63591;50.080;8.286;2023-02-28T08:33:53;3.53;;;1.70;;
75025;SDS011;63591;50.080;8.286;2023-02-28T08:36:21;4.10;;;2.00;;
75025;SDS011;63591;50.080;8.286;2023-02-28T08:38:48;4.75;;;1.88;;
75025;SDS011;63591;50.080;8.286;2023-02-28T08:41:13;4.70;;;1.80;;
75025;SDS011;63591;50.080;8.286;2023-02-28T08:43:39;3.90;;;1.90;;
75025;SDS011;63591;50.080;8.286;2023-02-28T08:46:05;3.85;;;1.80;;
75025;SDS011;63591;50.080;8.286;2023-02-28T08:48:32;5.28;;;1.90;;
75025;SDS011;63591;50.080;8.286;2023-02-28T08:51:03;4.00;;;1.80;;
75025;SDS011;63591;50.080;8.286;2023-02-28T08:53:30;4.20;;;1.80;;
75025;SDS011;63591;50.080;8.286;2023-02-28T08:55:57;4.72;;;2.05;;
75025;SDS011;63591;50.080;8.286;2023-02-28T08:58:33;4.20;;;1.90;;
75025;SDS011;63591;50.080;8.286;2023-02-28T09:00:59;4.50;;;1.90;;
75025;SDS011;63591;50.080;8.286;2023-02-28T09:03:25;4.72;;;2.00;;
75025;SDS011;63591;50.080;8.286;2023-02-28T09:05:55;5.07;;;1.88;;
75025;SDS011;63591;50.080;8.286;2023-02-28T09:08:23;4.80;;;2.00;;
75025;SDS011;63591;50.080;8.286;2023-02-28T09:10:50;4.78;;;2.22;;
75025;SDS011;63591;50.080;8.286;2023-02-28T09:13:17;5.03;;;2.22;;
75025;SDS011;63591;50.080;8.286;2023-02-28T09:15:42;4.40;;;1.90;;
75025;SDS011;63591;50.080;8.286;2023-02-28T09:18:08;4.55;;;2.10;;
75025;SDS011;63591;50.080;8.286;2023-02-28T09:20:33;5.50;;;2.30;;
75025;SDS011;63591;50.080;8.286;2023-02-28T09:22:58;5.03;;;2.20;;
75025;SDS011;63591;50.080;8.286;2023-02-28T09:25:24;4.10;;;2.20;;
75025;SDS011;63591;50.080;8.286;2023-02-28T09:27:49;4.57;;;1.90;;
75025;SDS011;63591;50.080;8.286;2023-02-28T09:30:14;4.30;;;2.13;;
75025;SDS011;63591;50.080;8.286;2023-02-28T09:32:41;5.70;;;2.40;;
75025;SDS011;63591;50.080;8.286;2023-02-28T09:35:06;3.90;;;1.90;;
75025;SDS011;63591;50.080;8.286;2023-02-28T09:37:32;4.93;;;2.20;;
75025;SDS011;63591;50.080;8.286;2023-02-28T09:39:57;5.20;;;2.40;;
75025;SDS011;63591;50.080;8.286;2023-02-28T09:42:28;4.80;;;2.40;;
75025;SDS011;63591;50.080;8.286;2023-02-28T09:44:59;5.35;;;2.28;;
75025;SDS011;63591;50.080;8.286;2023-02-28T09:47:34;6.97;;;2.40;;
75025;SDS011;63591;50.080;8.286;2023-02-28T09:50:18;4.63;;;2.25;;
75025;SDS011;63591;50.080;8.286;2023-02-28T09:53:05;4.55;;;2.25;;
75025;SDS011;63591;50.080;8.286;2023-02-28T09:56:06;5.70;;;2.20;;
75025;SDS011;63591;50.080;8.286;2023-02-28T09:58:49;5.85;;;2.65;;
75025;SDS011;63591;50.080;8.286;2023-02-28T10:04:03;5.05;;;2.20;;
75025;SDS011;63591;50.080;8.286;2023-02-28T10:06:42;5.53;;;2.40;;
75025;SDS011;63591;50.080;8.286;2023-02-28T10:09:13;4.38;;;2.47;;
75025;SDS011;63591;50.080;8.286;2023-02-28T10:11:45;4.43;;;2.10;;
75025;SDS011;63591;50.080;8.286;2023-02-28T10:14:18;5.15;;;2.33;;
75025;SDS011;63591;50.080;8.286;2023-02-28T10:16:47;5.40;;;2.33;;
75025;SDS011;63591;50.080;8.286;2023-02-28T10:19:28;5.97;;;2.40;;
75025;SDS011;63591;50.080;8.286;2023-02-28T10:22:02;4.55;;;2.40;;
75025;SDS011;63591;50.080;8.286;2023-02-28T10:24:37;6.05;;;2.35;;
75025;SDS011;63591;50.080;8.286;2023-02-28T10:27:12;5.10;;;2.50;;
75025;SDS011;63591;50.080;8.286;2023-02-28T10:29:49;5.15;;;2.40;;
75025;SDS011;63591;50.080;8.286;2023-02-28T10:32:21;4.95;;;2.40;;
75025;SDS011;63591;50.080;8.286;2023-02-28T10:34:55;4.93;;;2.50;;
75025;SDS011;63591;50.080;8.286;2023-02-28T10:37:24;4.55;;;2.40;;
75025;SDS011;63591;50.080;8.286;2023-02-28T10:39:49;6.20;;;2.60;;
75025;SDS011;63591;50.080;8.286;2023-02-28T10:42:23;6.10;;;2.80;;
75025;SDS011;63591;50.080;8.286;2023-02-28T10:47:38;5.10;;;2.60;;
75025;SDS011;63591;50.080;8.286;2023-02-28T10:50:42;5.45;;;2.70;;
75025;SDS011;63591;50.080;8.286;2023-02-28T10:55:35;5.80;;;2.93;;
75025;SDS011;63591;50.080;8.286;2023-02-28T10:58:01;5.95;;;2.75;;
75025;SDS011;63591;50.080;8.286;2023-02-28T11:00:31;5.35;;;2.80;;
75025;SDS011;63591;50.080;8.286;2023-02-28T11:02:59;5.70;;;2.97;;
75025;SDS011;63591;50.080;8.286;2023-02-28T11:05:25;5.43;;;2.63;;
75025;SDS011;63591;50.080;8.286;2023-02-28T11:07:55;6.20;;;2.27;;
75025;SDS011;63591;50.080;8.286;2023-02-28T11:10:25;5.40;;;2.53;;
75025;SDS011;63591;50.080;8.286;2023-02-28T11:12:55;6.80;;;2.85;;
75025;SDS011;63591;50.080;8.286;2023-02-28T11:15:27;6.13;;;2.67;;
75025;SDS011;63591;50.080;8.286;2023-02-28T11:17:56;6.40;;;2.72;;
75025;SDS011;63591;50.080;8.286;2023-02-28T11:20:25;5.17;;;2.67;;
75025;SDS011;63591;50.080;8.286;2023-02-28T11:22:53;5.68;;;3.00;;
75025;SDS011;63591;50.080;8.286;2023-02-28T11:27:51;6.38;;;3.00;;
75025;SDS011;63591;50.080;8.286;2023-02-28T11:30:31;5.97;;;2.95;;
75025;SDS011;63591;50.080;8.286;2023-02-28T11:35:51;6.75;;;3.03;;
75025;SDS011;63591;50.080;8.286;2023-02-28T11:38:18;6.07;;;3.05;;
75025;SDS011;63591;50.080;8.286;2023-02-28T11:43:26;5.65;;;2.80;;
75025;SDS011;63591;50.080;8.286;2023-02-28T11:51:35;5.40;;;2.90;;
75025;SDS011;63591;50.080;8.286;2023-02-28T11:55:14;6.32;;;2.92;;
75025;SDS011;63591;50.080;8.286;2023-02-28T12:06:00;5.80;;;2.57;;
75025;SDS011;63591;50.080;8.286;2023-02-28T12:08:51;5.47;;;2.70;;
75025;SDS011;63591;50.080;8.286;2023-02-28T12:11:53;6.13;;;2.88;;
75025;SDS011;63591;50.080;8.286;2023-02-28T12:17:22;5.63;;;2.90;;
75025;SDS011;63591;50.080;8.286;2023-02-28T12:20:05;6.10;;;2.93;;
75025;SDS011;63591;50.080;8.286;2023-02-28T12:22:52;5.32;;;2.50;;
75025;SDS011;63591;50.080;8.286;2023-02-28T12:28:12;5.75;;;2.90;;
75025;SDS011;63591;50.080;8.286;2023-02-28T12:31:00;5.50;;;2.88;;
75025;SDS011;63591;50.080;8.286;2023-02-28T12:33:34;6.57;;;3.07;;
75025;SDS011;63591;50.080;8.286;2023-02-28T12:36:05;6.18;;;2.92;;
75025;SDS011;63591;50.080;8.286;2023-02-28T12:44:02;6.07;;;2.97;;
75025;SDS011;63591;50.080;8.286;2023-02-28T12:46:37;5.63;;;2.97;;
75025;SDS011;63591;50.080;8.286;2023-02-28T12:49:10;5.88;;;3.00;;
75025;SDS011;63591;50.080;8.286;2023-02-28T12:51:43;5.40;;;2.92;;
75025;SDS011;63591;50.080;8.286;2023-02-28T12:56:49;5.47;;;2.90;;
75025;SDS011;63591;50.080;8.286;2023-02-28T12:59:25;6.23;;;3.27;;
75025;SDS011;63591;50.080;8.286;2023-02-28T13:04:55;7.57;;;2.88;;
75025;SDS011;63591;50.080;8.286;2023-02-28T13:07:50;9.35;;;3.38;;
75025;SDS011;63591;50.080;8.286;2023-02-28T13:10:42;5.25;;;2.78;;
75025;SDS011;63591;50.080;8.286;2023-02-28T13:13:14;5.43;;;2.77;;
75025;SDS011;63591;50.080;8.286;2023-02-28T13:15:53;5.93;;;3.00;;
75025;SDS011;63591;50.080;8.286;2023-02-28T13:18:45;7.38;;;3.08;;
75025;SDS011;63591;50.080;8.286;2023-02-28T13:21:22;5.90;;;3.00;;
75025;SDS011;63591;50.080;8.286;2023-02-28T13:39:46;6.87;;;3.20;;
75025;SDS011;63591;50.080;8.286;2023-02-28T13:42:48;6.20;;;3.40;;
75025;SDS011;63591;50.080;8.286;2023-02-28T13:45:28;7.40;;;3.83;;
75025;SDS011;63591;50.080;8.286;2023-02-28T14:06:57;6.20;;;3.43;;
75025;SDS011;63591;50.080;8.286;2023-02-28T14:09:31;6.22;;;3.10;;
75025;SDS011;63591;50.080;8.286;2023-02-28T14:15:02;6.00;;;2.80;;
75025;SDS011;63591;50.080;8.286;2023-02-28T14:17:30;6.45;;;3.30;;
75025;SDS011;63591;50.080;8.286;2023-02-28T14:19:57;6.20;;;3.03;;
75025;SDS011;63591;50.080;8.286;2023-02-28T14:27:45;6.00;;;3.30;;
75025;SDS011;63591;50.080;8.286;2023-02-28T14:38:13;5.85;;;3.45;;
75025;SDS011;63591;50.080;8.286;2023-02-28T14:40:43;6.13;;;3.25;;
75025;SDS011;63591;50.080;8.286;2023-02-28T14:43:19;5.33;;;2.97;;
75025;SDS011;63591;50.080;8.286;2023-02-28T14:45:49;5.03;;;2.60;;
75025;SDS011;63591;50.080;8.286;2023-02-28T14:48:16;5.68;;;2.92;;
75025;SDS011;63591;50.080;8.286;2023-02-28T14:50:48;5.70;;;3.15;;
75025;SDS011;63591;50.080;8.286;2023-02-28T14:53:17;6.00;;;3.00;;
75025;SDS011;63591;50.080;8.286;2023-02-28T14:55:45;6.10;;;3.00;;
75025;SDS011;63591;50.080;8.286;2023-02-28T15:01:18;5.40;;;3.13;;
75025;SDS011;63591;50.080;8.286;2023-02-28T15:03:46;5.70;;;3.10;;
75025;SDS011;63591;50.080;8.286;2023-02-28T15:06:13;6.60;;;3.70;;
75025;SDS011;63591;50.080;8.286;2023-02-28T15:08:42;5.60;;;3.10;;
75025;SDS011;63591;50.080;8.286;2023-02-28T15:11:08;6.32;;;3.80;;
75025;SDS011;63591;50.080;8.286;2023-02-28T15:13:45;7.68;;;3.70;;
75025;SDS011;63591;50.080;8.286;2023-02-28T15:21:32;6.32;;;3.45;;
75025;SDS011;63591;50.080;8.286;2023-02-28T15:24:04;6.28;;;3.03;;
75025;SDS011;63591;50.080;8.286;2023-02-28T15:26:39;5.80;;;3.25;;
75025;SDS011;63591;50.080;8.286;2023-02-28T15:29:10;6.40;;;3.60;;
75025;SDS011;63591;50.080;8.286;2023-02-28T15:34:51;7.22;;;3.50;;
75025;SDS011;63591;50.080;8.286;2023-02-28T15:39:58;8.68;;;3.60;;
75025;SDS011;63591;50.080;8.286;2023-02-28T15:42:36;6.30;;;3.60;;
75025;SDS011;63591;50.080;8.286;2023-02-28T15:45:01;6.47;;;3.57;;
75025;SDS011;63591;50.080;8.286;2023-02-28T15:47:27;5.93;;;3.30;;
75025;SDS011;63591;50.080;8.286;2023-02-28T15:50:01;6.75;;;3.40;;
75025;SDS011;63591;50.080;8.286;2023-02-28T15:52:39;6.22;;;3.40;;
75025;SDS011;63591;50.080;8.286;2023-02-28T15:57:41;7.97;;;4.25;;
75025;SDS011;63591;50.080;8.286;2023-02-28T16:00:09;7.43;;;4.18;;
75025;SDS011;63591;50.080;8.286;2023-02-28T16:02:38;6.47;;;3.80;;
75025;SDS011;63591;50.080;8.286;2023-02-28T16:07:32;7.97;;;4.07;;
75025;SDS011;63591;50.080;8.286;2023-02-28T16:09:59;7.10;;;4.05;;
75025;SDS011;63591;50.080;8.286;2023-02-28T16:12:26;6.93;;;3.80;;
75025;SDS011;63591;50.080;8.286;2023-02-28T16:14:54;6.78;;;3.80;;
75025;SDS011;63591;50.080;8.286;2023-02-28T16:17:23;6.43;;;3.72;;
75025;SDS011;63591;50.080;8.286;2023-02-28T16:19:50;7.47;;;4.00;;
75025;SDS011;63591;50.080;8.286;2023-02-28T16:22:16;8.05;;;4.32;;
75025;SDS011;63591;50.080;8.286;2023-02-28T16:24:41;7.37;;;3.63;;
75025;SDS011;63591;50.080;8.286;2023-02-28T16:27:07;7.97;;;4.20;;
75025;SDS011;63591;50.080;8.286;2023-02-28T16:29:44;6.30;;;3.70;;
75025;SDS011;63591;50.080;8.286;2023-02-28T16:32:10;6.43;;;3.55;;
75025;SDS011;63591;50.080;8.286;2023-02-28T16:34:38;7.53;;;3.80;;
75025;SDS011;63591;50.080;8.286;2023-02-28T16:37:05;7.67;;;4.10;;
75025;SDS011;63591;50.080;8.286;2023-02-28T16:39:36;7.05;;;3.80;;
75025;SDS011;63591;50.080;8.286;2023-02-28T16:42:01;9.37;;;3.87;;
75025;SDS011;63591;50.080;8.286;2023-02-28T16:44:28;10.50;;;4.23;;
75025;SDS011;63591;50.080;8.286;2023-02-28T16:46:56;7.32;;;4.32;;
75025;SDS011;63591;50.080;8.286;2023-02-28T16:49:22;6.83;;;3.87;;
75025;SDS011;63591;50.080;8.286;2023-02-28T16:51:47;7.78;;;3.75;;
75025;SDS011;63591;50.080;8.286;2023-02-28T16:54:12;8.23;;;3.60;;
75025;SDS011;63591;50.080;8.286;2023-02-28T16:56:39;6.77;;;4.20;;
75025;SDS011;63591;50.080;8.286;2023-02-28T16:59:09;7.13;;;4.00;;
75025;SDS011;63591;50.080;8.286;2023-02-28T17:01:36;8.00;;;4.00;;
75025;SDS011;63591;50.080;8.286;2023-02-28T17:04:01;6.83;;;3.93;;
75025;SDS011;63591;50.080;8.286;2023-02-28T17:06:27;6.18;;;3.63;;
75025;SDS011;63591;50.080;8.286;2023-02-28T17:08:54;6.38;;;4.05;;
75025;SDS011;63591;50.080;8.286;2023-02-28T17:11:21;8.10;;;4.07;;
75025;SDS011;63591;50.080;8.286;2023-02-28T17:13:46;7.57;;;3.80;;
75025;SDS011;63591;50.080;8.286;2023-02-28T17:16:17;8.17;;;4.30;;
75025;SDS011;63591;50.080;8.286;2023-02-28T17:18:45;7.72;;;3.88;;
75025;SDS011;63591;50.080;8.286;2023-02-28T17:21:14;7.67;;;3.87;;
75025;SDS011;63591;50.080;8.286;2023-02-28T17:23:41;7.22;;;3.65;;
75025;SDS011;63591;50.080;8.286;2023-02-28T17:26:08;6.55;;;3.90;;
75025;SDS011;63591;50.080;8.286;2023-02-28T17:28:37;7.10;;;3.75;;
75025;SDS011;63591;50.080;8.286;2023-02-28T17:31:03;7.13;;;3.93;;
75025;SDS011;63591;50.080;8.286;2023-02-28T17:33:28;8.87;;;4.40;;